Colombo, Sri Lanka
Current Conditions -  °F | °C
As of 2:10 AM on Saturday 25 Oct 2014 (Local Time) from VCBI Reporting Station
Few Clouds Few Clouds  
Wind Chill: 77°   Ceiling: Unl
Heat Index: 78°   Visibility: 6mi
Dew Point: 73°   Wind: 5mph
Humidity: 89%   Direction: 90°E
Pressure: 29.83"   Gusts: NA
Location:  6.93°N, 79.85°E
Report Text: VCBI 242010Z 09004KT 9999 FEW028 25/23 Q1010 NOSIG
Loading
Personal Weather Stations






























Interactive Weather Map
Tropical Storm Tracking
New forecast layout! Learn more

10-Day Weather Forecast

Advertisements
Track Severe Weather on mobile